sensor_id;sensor_type;location;lat;lon;timestamp;P1;durP1;ratioP1;P2;durP2;ratioP2
26157;SDS011;67284;44.782;10.282;2023-05-07T00:01:30;4.03;;;3.03;;
26157;SDS011;67284;44.782;10.282;2023-05-07T00:06:22;3.80;;;3.00;;
26157;SDS011;67284;44.782;10.282;2023-05-07T00:11:15;4.13;;;3.15;;
26157;SDS011;67284;44.782;10.282;2023-05-07T00:16:07;5.70;;;3.40;;
26157;SDS011;67284;44.782;10.282;2023-05-07T00:20:59;14.70;;;4.53;;
26157;SDS011;67284;44.782;10.282;2023-05-07T00:25:50;7.05;;;4.60;;
26157;SDS011;67284;44.782;10.282;2023-05-07T00:30:42;8.00;;;5.05;;
26157;SDS011;67284;44.782;10.282;2023-05-07T00:35:34;6.47;;;5.28;;
26157;SDS011;67284;44.782;10.282;2023-05-07T00:40:26;5.05;;;4.28;;
26157;SDS011;67284;44.782;10.282;2023-05-07T00:45:18;8.02;;;6.78;;
26157;SDS011;67284;44.782;10.282;2023-05-07T00:50:10;10.43;;;9.18;;
26157;SDS011;67284;44.782;10.282;2023-05-07T00:55:05;9.05;;;8.15;;
26157;SDS011;67284;44.782;10.282;2023-05-07T00:59:58;9.48;;;8.50;;
26157;SDS011;67284;44.782;10.282;2023-05-07T01:04:50;11.07;;;9.93;;
26157;SDS011;67284;44.782;10.282;2023-05-07T01:09:42;12.48;;;8.73;;
26157;SDS011;67284;44.782;10.282;2023-05-07T01:14:34;10.68;;;8.80;;
26157;SDS011;67284;44.782;10.282;2023-05-07T01:19:28;12.18;;;10.82;;
26157;SDS011;67284;44.782;10.282;2023-05-07T01:24:21;14.48;;;12.98;;
26157;SDS011;67284;44.782;10.282;2023-05-07T01:29:13;14.00;;;11.55;;
26157;SDS011;67284;44.782;10.282;2023-05-07T01:34:05;13.77;;;11.55;;
26157;SDS011;67284;44.782;10.282;2023-05-07T01:38:59;12.55;;;11.02;;
26157;SDS011;67284;44.782;10.282;2023-05-07T01:43:52;13.75;;;11.40;;
26157;SDS011;67284;44.782;10.282;2023-05-07T01:48:45;14.68;;;11.60;;
26157;SDS011;67284;44.782;10.282;2023-05-07T01:53:38;13.85;;;12.13;;
26157;SDS011;67284;44.782;10.282;2023-05-07T01:58:31;15.18;;;13.43;;
26157;SDS011;67284;44.782;10.282;2023-05-07T02:03:23;15.23;;;13.23;;
26157;SDS011;67284;44.782;10.282;2023-05-07T02:08:22;14.60;;;12.60;;
26157;SDS011;67284;44.782;10.282;2023-05-07T02:13:14;14.98;;;12.52;;
26157;SDS011;67284;44.782;10.282;2023-05-07T02:18:07;13.85;;;12.45;;
26157;SDS011;67284;44.782;10.282;2023-05-07T02:23:01;19.33;;;14.65;;
26157;SDS011;67284;44.782;10.282;2023-05-07T02:27:54;16.02;;;14.15;;
26157;SDS011;67284;44.782;10.282;2023-05-07T02:37:44;14.63;;;12.52;;
26157;SDS011;67284;44.782;10.282;2023-05-07T02:42:37;11.27;;;10.05;;
26157;SDS011;67284;44.782;10.282;2023-05-07T02:47:29;13.27;;;8.70;;
26157;SDS011;67284;44.782;10.282;2023-05-07T02:52:23;6.95;;;6.25;;
26157;SDS011;67284;44.782;10.282;2023-05-07T02:57:15;5.40;;;4.90;;
26157;SDS011;67284;44.782;10.282;2023-05-07T03:02:07;7.85;;;4.65;;
26157;SDS011;67284;44.782;10.282;2023-05-07T03:06:59;6.18;;;4.47;;
26157;SDS011;67284;44.782;10.282;2023-05-07T03:11:51;5.07;;;3.80;;
26157;SDS011;67284;44.782;10.282;2023-05-07T03:16:43;6.65;;;4.95;;
26157;SDS011;67284;44.782;10.282;2023-05-07T03:21:35;6.97;;;4.95;;
26157;SDS011;67284;44.782;10.282;2023-05-07T03:26:27;8.50;;;4.75;;
26157;SDS011;67284;44.782;10.282;2023-05-07T03:31:19;6.95;;;5.78;;
26157;SDS011;67284;44.782;10.282;2023-05-07T03:36:11;6.15;;;5.55;;
26157;SDS011;67284;44.782;10.282;2023-05-07T03:41:03;11.00;;;6.53;;
26157;SDS011;67284;44.782;10.282;2023-05-07T03:45:55;7.97;;;6.00;;
26157;SDS011;67284;44.782;10.282;2023-05-07T03:50:50;8.63;;;6.60;;
26157;SDS011;67284;44.782;10.282;2023-05-07T03:55:43;13.18;;;6.90;;
26157;SDS011;67284;44.782;10.282;2023-05-07T04:00:35;7.97;;;6.47;;
26157;SDS011;67284;44.782;10.282;2023-05-07T04:05:39;9.35;;;6.93;;
26157;SDS011;67284;44.782;10.282;2023-05-07T04:10:31;9.70;;;7.43;;
26157;SDS011;67284;44.782;10.282;2023-05-07T04:15:27;7.50;;;5.85;;
26157;SDS011;67284;44.782;10.282;2023-05-07T04:20:20;6.13;;;5.00;;
26157;SDS011;67284;44.782;10.282;2023-05-07T04:25:19;5.70;;;4.28;;
26157;SDS011;67284;44.782;10.282;2023-05-07T04:30:11;6.40;;;4.55;;
26157;SDS011;67284;44.782;10.282;2023-05-07T04:35:05;15.98;;;4.50;;
26157;SDS011;67284;44.782;10.282;2023-05-07T04:39:58;8.68;;;3.90;;
26157;SDS011;67284;44.782;10.282;2023-05-07T04:44:52;5.53;;;3.70;;
26157;SDS011;67284;44.782;10.282;2023-05-07T04:49:46;8.52;;;3.60;;
26157;SDS011;67284;44.782;10.282;2023-05-07T04:54:38;3.90;;;3.28;;
26157;SDS011;67284;44.782;10.282;2023-05-07T04:59:32;5.28;;;3.50;;
26157;SDS011;67284;44.782;10.282;2023-05-07T05:04:24;6.43;;;3.33;;
26157;SDS011;67284;44.782;10.282;2023-05-07T05:09:16;4.28;;;3.65;;
26157;SDS011;67284;44.782;10.282;2023-05-07T05:14:09;4.78;;;3.78;;
26157;SDS011;67284;44.782;10.282;2023-05-07T05:19:02;3.67;;;3.22;;
26157;SDS011;67284;44.782;10.282;2023-05-07T05:23:57;4.57;;;3.60;;
26157;SDS011;67284;44.782;10.282;2023-05-07T05:28:50;7.93;;;4.20;;
26157;SDS011;67284;44.782;10.282;2023-05-07T05:33:45;4.35;;;3.88;;
26157;SDS011;67284;44.782;10.282;2023-05-07T05:38:37;5.32;;;4.43;;
26157;SDS011;67284;44.782;10.282;2023-05-07T05:43:29;6.68;;;4.90;;
26157;SDS011;67284;44.782;10.282;2023-05-07T05:48:22;5.25;;;4.20;;
26157;SDS011;67284;44.782;10.282;2023-05-07T05:53:15;4.60;;;4.10;;
26157;SDS011;67284;44.782;10.282;2023-05-07T05:58:08;5.45;;;4.57;;
26157;SDS011;67284;44.782;10.282;2023-05-07T06:03:04;4.75;;;4.28;;
26157;SDS011;67284;44.782;10.282;2023-05-07T06:07:56;5.10;;;4.18;;
26157;SDS011;67284;44.782;10.282;2023-05-07T06:12:50;6.65;;;6.05;;
26157;SDS011;67284;44.782;10.282;2023-05-07T06:17:43;8.00;;;6.60;;
26157;SDS011;67284;44.782;10.282;2023-05-07T06:22:35;10.73;;;7.93;;
26157;SDS011;67284;44.782;10.282;2023-05-07T06:27:27;9.00;;;7.32;;
26157;SDS011;67284;44.782;10.282;2023-05-07T06:32:20;9.60;;;7.85;;
26157;SDS011;67284;44.782;10.282;2023-05-07T06:37:13;13.65;;;9.45;;
26157;SDS011;67284;44.782;10.282;2023-05-07T06:42:15;11.13;;;8.35;;
26157;SDS011;67284;44.782;10.282;2023-05-07T06:47:10;6.75;;;5.00;;
26157;SDS011;67284;44.782;10.282;2023-05-07T06:52:06;7.82;;;6.45;;
26157;SDS011;67284;44.782;10.282;2023-05-07T06:56:58;8.77;;;7.82;;
26157;SDS011;67284;44.782;10.282;2023-05-07T07:01:52;7.18;;;6.07;;
26157;SDS011;67284;44.782;10.282;2023-05-07T07:06:45;8.50;;;7.00;;
26157;SDS011;67284;44.782;10.282;2023-05-07T07:11:38;10.00;;;8.00;;
26157;SDS011;67284;44.782;10.282;2023-05-07T07:16:30;10.75;;;8.13;;
26157;SDS011;67284;44.782;10.282;2023-05-07T07:21:22;9.95;;;8.65;;
26157;SDS011;67284;44.782;10.282;2023-05-07T07:26:15;13.50;;;10.38;;
26157;SDS011;67284;44.782;10.282;2023-05-07T07:31:07;14.77;;;12.13;;
26157;SDS011;67284;44.782;10.282;2023-05-07T07:35:59;17.33;;;13.65;;
26157;SDS011;67284;44.782;10.282;2023-05-07T07:40:51;16.63;;;12.25;;
26157;SDS011;67284;44.782;10.282;2023-05-07T07:45:43;15.98;;;13.43;;
26157;SDS011;67284;44.782;10.282;2023-05-07T07:50:35;19.30;;;16.08;;
26157;SDS011;67284;44.782;10.282;2023-05-07T07:55:39;21.77;;;16.23;;
26157;SDS011;67284;44.782;10.282;2023-05-07T08:00:33;21.13;;;16.92;;
26157;SDS011;67284;44.782;10.282;2023-05-07T08:05:25;25.20;;;16.00;;
26157;SDS011;67284;44.782;10.282;2023-05-07T08:10:21;22.92;;;16.80;;
26157;SDS011;67284;44.782;10.282;2023-05-07T08:15:18;20.58;;;17.23;;
26157;SDS011;67284;44.782;10.282;2023-05-07T08:20:11;21.98;;;16.58;;
26157;SDS011;67284;44.782;10.282;2023-05-07T08:25:03;17.42;;;14.27;;
26157;SDS011;67284;44.782;10.282;2023-05-07T08:29:56;24.98;;;17.85;;
26157;SDS011;67284;44.782;10.282;2023-05-07T08:34:49;23.08;;;17.85;;
26157;SDS011;67284;44.782;10.282;2023-05-07T08:39:41;20.70;;;17.40;;
26157;SDS011;67284;44.782;10.282;2023-05-07T08:44:40;29.92;;;21.45;;
26157;SDS011;67284;44.782;10.282;2023-05-07T08:49:35;28.70;;;20.95;;
26157;SDS011;67284;44.782;10.282;2023-05-07T08:54:28;23.58;;;17.88;;
26157;SDS011;67284;44.782;10.282;2023-05-07T08:59:21;27.40;;;20.25;;
26157;SDS011;67284;44.782;10.282;2023-05-07T09:04:13;23.77;;;18.67;;
26157;SDS011;67284;44.782;10.282;2023-05-07T09:09:07;25.70;;;20.25;;
26157;SDS011;67284;44.782;10.282;2023-05-07T09:13:59;26.73;;;18.60;;
26157;SDS011;67284;44.782;10.282;2023-05-07T09:18:58;23.27;;;19.27;;
26157;SDS011;67284;44.782;10.282;2023-05-07T09:23:55;25.80;;;17.73;;
26157;SDS011;67284;44.782;10.282;2023-05-07T09:28:57;22.30;;;17.52;;
26157;SDS011;67284;44.782;10.282;2023-05-07T09:33:50;20.05;;;15.80;;
26157;SDS011;67284;44.782;10.282;2023-05-07T09:38:44;24.15;;;18.77;;
26157;SDS011;67284;44.782;10.282;2023-05-07T09:43:38;24.40;;;19.48;;
26157;SDS011;67284;44.782;10.282;2023-05-07T09:48:35;23.38;;;16.65;;
26157;SDS011;67284;44.782;10.282;2023-05-07T09:53:30;25.38;;;17.92;;
26157;SDS011;67284;44.782;10.282;2023-05-07T09:58:27;19.75;;;16.52;;
26157;SDS011;67284;44.782;10.282;2023-05-07T10:03:20;22.88;;;18.17;;
26157;SDS011;67284;44.782;10.282;2023-05-07T10:08:23;22.70;;;17.00;;
26157;SDS011;67284;44.782;10.282;2023-05-07T10:13:19;20.02;;;16.05;;
26157;SDS011;67284;44.782;10.282;2023-05-07T10:18:14;19.67;;;16.05;;
26157;SDS011;67284;44.782;10.282;2023-05-07T10:23:12;18.45;;;16.33;;
26157;SDS011;67284;44.782;10.282;2023-05-07T10:28:10;18.08;;;15.57;;
26157;SDS011;67284;44.782;10.282;2023-05-07T10:33:06;17.00;;;15.20;;
26157;SDS011;67284;44.782;10.282;2023-05-07T10:38:05;20.13;;;16.42;;
26157;SDS011;67284;44.782;10.282;2023-05-07T10:43:01;20.20;;;17.48;;
26157;SDS011;67284;44.782;10.282;2023-05-07T10:48:09;22.07;;;17.20;;
26157;SDS011;67284;44.782;10.282;2023-05-07T10:53:29;18.67;;;16.00;;
26157;SDS011;67284;44.782;10.282;2023-05-07T10:58:36;24.45;;;18.60;;
26157;SDS011;67284;44.782;10.282;2023-05-07T11:09:08;25.20;;;19.38;;
26157;SDS011;67284;44.782;10.282;2023-05-07T11:14:08;18.90;;;16.33;;
26157;SDS011;67284;44.782;10.282;2023-05-07T11:19:08;23.13;;;19.02;;
26157;SDS011;67284;44.782;10.282;2023-05-07T11:24:06;27.38;;;17.67;;
26157;SDS011;67284;44.782;10.282;2023-05-07T11:29:11;22.60;;;17.90;;
26157;SDS011;67284;44.782;10.282;2023-05-07T11:34:06;22.50;;;18.02;;
26157;SDS011;67284;44.782;10.282;2023-05-07T11:38:59;21.17;;;17.50;;
26157;SDS011;67284;44.782;10.282;2023-05-07T11:43:55;23.13;;;18.33;;
26157;SDS011;67284;44.782;10.282;2023-05-07T11:48:48;23.02;;;18.70;;
26157;SDS011;67284;44.782;10.282;2023-05-07T11:53:40;16.77;;;14.95;;
26157;SDS011;67284;44.782;10.282;2023-05-07T11:58:34;21.08;;;18.60;;
26157;SDS011;67284;44.782;10.282;2023-05-07T12:03:26;27.60;;;20.63;;
26157;SDS011;67284;44.782;10.282;2023-05-07T12:08:22;23.00;;;18.35;;
26157;SDS011;67284;44.782;10.282;2023-05-07T12:13:17;21.65;;;17.25;;
26157;SDS011;67284;44.782;10.282;2023-05-07T12:18:10;19.60;;;16.10;;
26157;SDS011;67284;44.782;10.282;2023-05-07T12:23:03;19.38;;;15.98;;
26157;SDS011;67284;44.782;10.282;2023-05-07T12:27:55;21.30;;;16.58;;
26157;SDS011;67284;44.782;10.282;2023-05-07T12:32:53;19.27;;;16.40;;
26157;SDS011;67284;44.782;10.282;2023-05-07T12:37:54;19.60;;;16.08;;
26157;SDS011;67284;44.782;10.282;2023-05-07T12:42:46;19.58;;;15.98;;
26157;SDS011;67284;44.782;10.282;2023-05-07T12:47:38;19.10;;;14.95;;
26157;SDS011;67284;44.782;10.282;2023-05-07T12:52:30;18.10;;;15.20;;
26157;SDS011;67284;44.782;10.282;2023-05-07T12:57:22;16.52;;;14.73;;
26157;SDS011;67284;44.782;10.282;2023-05-07T13:02:14;16.77;;;14.23;;
26157;SDS011;67284;44.782;10.282;2023-05-07T13:07:07;28.55;;;14.93;;
26157;SDS011;67284;44.782;10.282;2023-05-07T13:11:59;17.13;;;13.40;;
26157;SDS011;67284;44.782;10.282;2023-05-07T13:16:54;16.08;;;14.35;;
26157;SDS011;67284;44.782;10.282;2023-05-07T13:21:46;17.77;;;13.80;;
26157;SDS011;67284;44.782;10.282;2023-05-07T13:26:37;17.60;;;12.88;;
26157;SDS011;67284;44.782;10.282;2023-05-07T13:31:29;13.00;;;11.52;;
26157;SDS011;67284;44.782;10.282;2023-05-07T13:36:22;18.15;;;13.88;;
26157;SDS011;67284;44.782;10.282;2023-05-07T13:41:14;15.02;;;12.45;;
26157;SDS011;67284;44.782;10.282;2023-05-07T13:46:06;17.27;;;13.73;;
26157;SDS011;67284;44.782;10.282;2023-05-07T13:50:58;13.20;;;11.65;;
26157;SDS011;67284;44.782;10.282;2023-05-07T13:55:50;12.60;;;11.30;;
26157;SDS011;67284;44.782;10.282;2023-05-07T14:00:42;12.40;;;10.68;;
26157;SDS011;67284;44.782;10.282;2023-05-07T14:05:34;12.18;;;10.95;;
26157;SDS011;67284;44.782;10.282;2023-05-07T14:10:27;12.60;;;10.75;;
26157;SDS011;67284;44.782;10.282;2023-05-07T14:15:19;12.07;;;10.77;;
26157;SDS011;67284;44.782;10.282;2023-05-07T14:20:11;12.70;;;11.07;;
26157;SDS011;67284;44.782;10.282;2023-05-07T14:25:04;15.25;;;11.32;;
26157;SDS011;67284;44.782;10.282;2023-05-07T14:29:57;10.05;;;9.05;;
26157;SDS011;67284;44.782;10.282;2023-05-07T14:34:49;11.27;;;10.18;;
26157;SDS011;67284;44.782;10.282;2023-05-07T14:39:41;12.07;;;10.00;;
26157;SDS011;67284;44.782;10.282;2023-05-07T14:44:36;9.13;;;8.05;;
26157;SDS011;67284;44.782;10.282;2023-05-07T14:49:28;9.48;;;8.57;;
26157;SDS011;67284;44.782;10.282;2023-05-07T14:54:20;8.93;;;8.02;;
26157;SDS011;67284;44.782;10.282;2023-05-07T14:59:12;9.85;;;8.85;;
26157;SDS011;67284;44.782;10.282;2023-05-07T15:04:04;9.43;;;8.48;;
26157;SDS011;67284;44.782;10.282;2023-05-07T15:08:56;8.60;;;7.70;;
26157;SDS011;67284;44.782;10.282;2023-05-07T15:13:48;11.07;;;8.35;;
26157;SDS011;67284;44.782;10.282;2023-05-07T15:18:41;9.63;;;8.40;;
26157;SDS011;67284;44.782;10.282;2023-05-07T15:23:33;9.93;;;8.57;;
26157;SDS011;67284;44.782;10.282;2023-05-07T15:28:24;8.63;;;7.82;;
26157;SDS011;67284;44.782;10.282;2023-05-07T15:33:20;9.15;;;8.23;;
26157;SDS011;67284;44.782;10.282;2023-05-07T15:38:12;9.90;;;8.50;;
26157;SDS011;67284;44.782;10.282;2023-05-07T15:43:04;11.82;;;8.32;;
26157;SDS011;67284;44.782;10.282;2023-05-07T15:47:56;11.95;;;8.02;;
26157;SDS011;67284;44.782;10.282;2023-05-07T15:52:48;9.20;;;8.15;;
26157;SDS011;67284;44.782;10.282;2023-05-07T15:57:40;9.38;;;8.15;;
26157;SDS011;67284;44.782;10.282;2023-05-07T16:02:32;9.48;;;7.72;;
26157;SDS011;67284;44.782;10.282;2023-05-07T16:07:24;9.23;;;7.75;;
26157;SDS011;67284;44.782;10.282;2023-05-07T16:12:15;9.50;;;8.32;;
26157;SDS011;67284;44.782;10.282;2023-05-07T16:17:09;10.60;;;7.38;;
26157;SDS011;67284;44.782;10.282;2023-05-07T16:22:01;9.13;;;8.18;;
26157;SDS011;67284;44.782;10.282;2023-05-07T16:26:53;8.63;;;7.72;;
26157;SDS011;67284;44.782;10.282;2023-05-07T16:31:44;8.77;;;7.97;;
26157;SDS011;67284;44.782;10.282;2023-05-07T16:36:36;12.68;;;7.60;;
26157;SDS011;67284;44.782;10.282;2023-05-07T16:41:28;8.80;;;7.65;;
26157;SDS011;67284;44.782;10.282;2023-05-07T16:46:20;8.30;;;7.50;;
26157;SDS011;67284;44.782;10.282;2023-05-07T16:51:12;7.90;;;7.13;;
26157;SDS011;67284;44.782;10.282;2023-05-07T16:56:04;10.10;;;7.32;;
26157;SDS011;67284;44.782;10.282;2023-05-07T17:00:56;9.30;;;6.82;;
26157;SDS011;67284;44.782;10.282;2023-05-07T17:05:48;10.00;;;6.80;;
26157;SDS011;67284;44.782;10.282;2023-05-07T17:10:40;6.65;;;5.95;;
26157;SDS011;67284;44.782;10.282;2023-05-07T17:15:32;8.77;;;6.75;;
26157;SDS011;67284;44.782;10.282;2023-05-07T17:20:27;8.05;;;6.90;;
26157;SDS011;67284;44.782;10.282;2023-05-07T17:25:19;7.88;;;6.80;;
26157;SDS011;67284;44.782;10.282;2023-05-07T17:30:11;6.97;;;6.38;;
26157;SDS011;67284;44.782;10.282;2023-05-07T17:35:04;7.57;;;6.82;;
26157;SDS011;67284;44.782;10.282;2023-05-07T17:39:56;7.63;;;6.60;;
26157;SDS011;67284;44.782;10.282;2023-05-07T17:44:48;7.32;;;6.32;;
26157;SDS011;67284;44.782;10.282;2023-05-07T17:49:40;7.53;;;6.82;;
26157;SDS011;67284;44.782;10.282;2023-05-07T17:54:32;8.13;;;7.32;;
26157;SDS011;67284;44.782;10.282;2023-05-07T17:59:24;7.85;;;7.03;;
26157;SDS011;67284;44.782;10.282;2023-05-07T18:04:16;9.35;;;6.72;;
26157;SDS011;67284;44.782;10.282;2023-05-07T18:09:10;7.30;;;6.60;;
26157;SDS011;67284;44.782;10.282;2023-05-07T18:14:02;7.68;;;6.85;;
26157;SDS011;67284;44.782;10.282;2023-05-07T18:18:54;7.60;;;6.88;;
26157;SDS011;67284;44.782;10.282;2023-05-07T18:23:46;7.97;;;7.18;;
26157;SDS011;67284;44.782;10.282;2023-05-07T18:28:39;7.10;;;6.40;;
26157;SDS011;67284;44.782;10.282;2023-05-07T18:33:31;8.90;;;8.00;;
26157;SDS011;67284;44.782;10.282;2023-05-07T18:38:23;8.93;;;7.90;;
26157;SDS011;67284;44.782;10.282;2023-05-07T18:43:17;9.48;;;8.48;;
26157;SDS011;67284;44.782;10.282;2023-05-07T18:48:09;10.88;;;8.23;;
26157;SDS011;67284;44.782;10.282;2023-05-07T18:53:01;10.95;;;7.75;;
26157;SDS011;67284;44.782;10.282;2023-05-07T18:57:53;10.02;;;7.72;;
26157;SDS011;67284;44.782;10.282;2023-05-07T19:02:45;9.50;;;8.10;;
26157;SDS011;67284;44.782;10.282;2023-05-07T19:07:37;8.30;;;7.47;;
26157;SDS011;67284;44.782;10.282;2023-05-07T19:12:29;8.88;;;7.68;;
26157;SDS011;67284;44.782;10.282;2023-05-07T19:17:21;8.50;;;7.25;;
26157;SDS011;67284;44.782;10.282;2023-05-07T19:22:14;7.60;;;6.80;;
26157;SDS011;67284;44.782;10.282;2023-05-07T19:27:06;8.93;;;5.35;;
26157;SDS011;67284;44.782;10.282;2023-05-07T19:31:59;5.65;;;5.15;;
26157;SDS011;67284;44.782;10.282;2023-05-07T19:36:52;5.32;;;3.13;;
26157;SDS011;67284;44.782;10.282;2023-05-07T19:41:43;4.65;;;3.75;;
26157;SDS011;67284;44.782;10.282;2023-05-07T19:46:35;2.75;;;2.45;;
26157;SDS011;67284;44.782;10.282;2023-05-07T19:51:30;2.40;;;1.95;;
26157;SDS011;67284;44.782;10.282;2023-05-07T19:56:23;2.65;;;2.35;;
26157;SDS011;67284;44.782;10.282;2023-05-07T20:01:16;4.38;;;2.47;;
26157;SDS011;67284;44.782;10.282;2023-05-07T20:06:07;5.47;;;2.22;;
26157;SDS011;67284;44.782;10.282;2023-05-07T20:10:59;3.47;;;2.38;;
26157;SDS011;67284;44.782;10.282;2023-05-07T20:15:55;2.80;;;2.60;;
26157;SDS011;67284;44.782;10.282;2023-05-07T20:20:48;4.72;;;2.60;;
26157;SDS011;67284;44.782;10.282;2023-05-07T20:25:40;3.78;;;2.80;;
26157;SDS011;67284;44.782;10.282;2023-05-07T20:30:33;4.03;;;2.78;;
26157;SDS011;67284;44.782;10.282;2023-05-07T20:35:25;5.80;;;2.75;;
26157;SDS011;67284;44.782;10.282;2023-05-07T20:40:17;4.50;;;2.90;;
26157;SDS011;67284;44.782;10.282;2023-05-07T20:45:09;4.22;;;3.00;;
26157;SDS011;67284;44.782;10.282;2023-05-07T20:50:02;3.55;;;2.78;;
26157;SDS011;67284;44.782;10.282;2023-05-07T20:54:54;3.47;;;3.17;;
26157;SDS011;67284;44.782;10.282;2023-05-07T20:59:46;5.60;;;4.78;;
26157;SDS011;67284;44.782;10.282;2023-05-07T21:04:37;5.72;;;4.65;;
26157;SDS011;67284;44.782;10.282;2023-05-07T21:09:29;5.70;;;3.72;;
26157;SDS011;67284;44.782;10.282;2023-05-07T21:14:21;4.60;;;4.18;;
26157;SDS011;67284;44.782;10.282;2023-05-07T21:19:13;4.70;;;4.15;;
26157;SDS011;67284;44.782;10.282;2023-05-07T21:24:05;4.10;;;3.70;;
26157;SDS011;67284;44.782;10.282;2023-05-07T21:28:57;4.22;;;3.83;;
26157;SDS011;67284;44.782;10.282;2023-05-07T21:33:49;4.15;;;3.53;;
26157;SDS011;67284;44.782;10.282;2023-05-07T21:38:43;4.32;;;3.90;;
26157;SDS011;67284;44.782;10.282;2023-05-07T21:43:35;5.68;;;3.70;;
26157;SDS011;67284;44.782;10.282;2023-05-07T21:48:27;5.10;;;3.38;;
26157;SDS011;67284;44.782;10.282;2023-05-07T21:53:19;6.78;;;3.60;;
26157;SDS011;67284;44.782;10.282;2023-05-07T21:58:10;3.80;;;3.50;;
26157;SDS011;67284;44.782;10.282;2023-05-07T22:03:02;3.20;;;2.92;;
26157;SDS011;67284;44.782;10.282;2023-05-07T22:07:54;3.15;;;2.85;;
26157;SDS011;67284;44.782;10.282;2023-05-07T22:12:46;5.70;;;3.83;;
26157;SDS011;67284;44.782;10.282;2023-05-07T22:17:38;3.60;;;3.30;;
26157;SDS011;67284;44.782;10.282;2023-05-07T22:22:30;4.07;;;3.35;;
26157;SDS011;67284;44.782;10.282;2023-05-07T22:27:22;5.03;;;4.53;;
26157;SDS011;67284;44.782;10.282;2023-05-07T22:32:13;7.20;;;4.05;;
26157;SDS011;67284;44.782;10.282;2023-05-07T22:37:05;4.93;;;4.32;;
26157;SDS011;67284;44.782;10.282;2023-05-07T22:41:57;5.90;;;5.30;;
26157;SDS011;67284;44.782;10.282;2023-05-07T22:46:49;7.03;;;5.65;;
26157;SDS011;67284;44.782;10.282;2023-05-07T22:51:41;5.68;;;5.03;;
26157;SDS011;67284;44.782;10.282;2023-05-07T22:56:33;9.77;;;5.57;;
26157;SDS011;67284;44.782;10.282;2023-05-07T23:01:25;10.43;;;6.65;;
26157;SDS011;67284;44.782;10.282;2023-05-07T23:06:17;7.70;;;5.78;;
26157;SDS011;67284;44.782;10.282;2023-05-07T23:11:09;7.32;;;6.32;;
26157;SDS011;67284;44.782;10.282;2023-05-07T23:16:01;10.52;;;7.60;;
26157;SDS011;67284;44.782;10.282;2023-05-07T23:20:53;7.90;;;6.78;;
26157;SDS011;67284;44.782;10.282;2023-05-07T23:25:45;6.93;;;6.22;;
26157;SDS011;67284;44.782;10.282;2023-05-07T23:30:38;7.80;;;6.28;;
26157;SDS011;67284;44.782;10.282;2023-05-07T23:35:30;9.27;;;6.70;;
26157;SDS011;67284;44.782;10.282;2023-05-07T23:40:22;11.55;;;7.57;;
26157;SDS011;67284;44.782;10.282;2023-05-07T23:45:14;10.30;;;7.60;;
26157;SDS011;67284;44.782;10.282;2023-05-07T23:50:06;10.70;;;6.72;;
26157;SDS011;67284;44.782;10.282;2023-05-07T23:54:58;11.23;;;8.20;;
26157;SDS011;67284;44.782;10.282;2023-05-07T23:59:50;13.30;;;9.30;;
